Time;durP1;ratioP1;P1;durP2;ratioP2;P2;SDS_P1;SDS_P2;PMS_P1;PMS_P2;Temp;Humidity;BMP_temperature;BMP_pressure;BME280_temperature;BME280_humidity;BME280_pressure;Samples;Min_cycle;Max_cycle;Signal;HPM_P1;HPM_P2
2022/11/30 00:01:26;;;;;;;;;;;18.60;61.10;;;;;;5060883;28;795;-70
2022/11/30 00:03:52;;;;;;;;;;;18.60;61.00;;;;;;5060286;28;856;-71
2022/11/30 00:06:22;;;;;;;;;;;18.60;61.10;;;;;;5054681;28;942;-71
2022/11/30 00:08:47;;;;;;;;;;;18.60;61.10;;;;;;5060239;28;1254;-71
2022/11/30 00:11:14;;;;;;;;;;;18.60;61.10;;;;;;5042029;28;872;-71
2022/11/30 00:13:39;;;;;;;;;;;18.60;61.10;;;;;;5061148;28;1331;-71
2022/11/30 00:16:05;;;;;;;;;;;18.60;61.10;;;;;;5060513;28;962;-71
2022/11/30 00:18:30;;;;;;;;;;;18.60;61.10;;;;;;5062134;28;1913;-71
2022/11/30 00:21:02;;;;;;;;;;;18.60;61.10;;;;;;5042262;28;882;-71
2022/11/30 00:23:31;;;;;;;;;;;18.60;61.10;;;;;;5061253;28;853;-71
2022/11/30 00:25:59;;;;;;;;;;;18.60;61.20;;;;;;5059671;28;774;-71
2022/11/30 00:28:24;;;;;;;;;;;18.60;61.20;;;;;;5049043;28;1260;-71
2022/11/30 00:30:57;;;;;;;;;;;18.60;61.20;;;;;;5060085;28;863;-71
2022/11/30 00:33:22;;;;;;;;;;;18.60;61.20;;;;;;5058323;28;871;-71
2022/11/30 00:35:54;;;;;;;;;;;18.60;61.20;;;;;;5060832;28;1026;-71
2022/11/30 00:38:20;;;;;;;;;;;18.50;61.20;;;;;;5036772;28;1945;-71
2022/11/30 00:40:45;;;;;;;;;;;18.50;61.20;;;;;;5060417;28;990;-71
2022/11/30 00:43:11;;;;;;;;;;;18.50;61.20;;;;;;5059952;28;903;-71
2022/11/30 00:45:36;;;;;;;;;;;18.50;61.20;;;;;;5060270;28;957;-71
2022/11/30 00:48:01;;;;;;;;;;;18.60;61.30;;;;;;5061994;28;1271;-71
2022/11/30 00:50:27;;;;;;;;;;;18.50;61.30;;;;;;5044473;28;879;-71
2022/11/30 00:52:52;;;;;;;;;;;18.60;61.30;;;;;;5065656;28;930;-71
2022/11/30 00:55:18;;;;;;;;;;;18.60;61.30;;;;;;5061746;28;1057;-71
2022/11/30 00:57:43;;;;;;;;;;;18.50;61.30;;;;;;5060244;28;1965;-71
2022/11/30 01:00:09;;;;;;;;;;;18.60;61.40;;;;;;5061051;28;920;-71
2022/11/30 01:02:34;;;;;;;;;;;18.60;61.40;;;;;;5061463;28;849;-71
2022/11/30 01:05:00;;;;;;;;;;;18.50;61.30;;;;;;5062473;28;928;-71
2022/11/30 01:07:25;;;;;;;;;;;18.50;61.40;;;;;;5060180;28;1482;-71
2022/11/30 01:09:51;;;;;;;;;;;18.50;61.30;;;;;;5061764;28;1270;-71
2022/11/30 01:12:16;;;;;;;;;;;18.50;61.40;;;;;;5060451;28;951;-71
2022/11/30 01:14:42;;;;;;;;;;;18.50;61.40;;;;;;5061649;28;1003;-71
2022/11/30 01:17:07;;;;;;;;;;;18.50;61.40;;;;;;5060289;28;1951;-71
2022/11/30 01:19:32;;;;;;;;;;;18.50;61.40;;;;;;5062569;28;1245;-71
2022/11/30 01:21:58;;;;;;;;;;;18.50;61.40;;;;;;5043725;28;908;-71
2022/11/30 01:24:23;;;;;;;;;;;18.50;61.40;;;;;;5062213;28;867;-71
2022/11/30 01:26:49;;;;;;;;;;;18.50;61.40;;;;;;5054710;28;1436;-71
2022/11/30 01:29:14;;;;;;;;;;;18.50;61.50;;;;;;5059980;28;1263;-70
2022/11/30 01:31:40;;;;;;;;;;;18.50;61.50;;;;;;5061989;28;793;-71
2022/11/30 01:34:05;;;;;;;;;;;18.50;61.50;;;;;;5038929;28;1473;-71
2022/11/30 01:36:31;;;;;;;;;;;18.50;61.50;;;;;;5055741;28;882;-71
2022/11/30 01:38:56;;;;;;;;;;;18.50;61.50;;;;;;5059548;28;1938;-71
2022/11/30 01:41:31;;;;;;;;;;;18.50;61.50;;;;;;5041558;28;856;-71
2022/11/30 01:44:16;;;;;;;;;;;18.50;61.60;;;;;;5060553;28;844;-70
2022/11/30 01:46:42;;;;;;;;;;;18.50;61.50;;;;;;5018309;28;1101;-70
2022/11/30 01:49:08;;;;;;;;;;;18.50;61.50;;;;;;5061904;28;1276;-70
2022/11/30 01:51:43;;;;;;;;;;;18.50;61.60;;;;;;5062023;28;882;-71
2022/11/30 01:54:09;;;;;;;;;;;18.50;61.60;;;;;;5042090;28;860;-71
2022/11/30 01:56:36;;;;;;;;;;;18.50;61.60;;;;;;5040435;28;895;-71
2022/11/30 01:59:01;;;;;;;;;;;18.50;61.60;;;;;;5060308;28;1894;-71
2022/11/30 02:01:27;;;;;;;;;;;18.50;61.60;;;;;;5044185;28;848;-71
2022/11/30 02:03:54;;;;;;;;;;;18.50;61.60;;;;;;5060955;28;938;-71
2022/11/30 02:06:20;;;;;;;;;;;18.50;61.60;;;;;;5040719;28;947;-70
2022/11/30 02:08:45;;;;;;;;;;;18.50;61.60;;;;;;5042626;28;1356;-71
2022/11/30 02:11:11;;;;;;;;;;;18.50;61.60;;;;;;5059360;28;887;-71
2022/11/30 02:13:56;;;;;;;;;;;18.50;61.60;;;;;;5042470;28;1327;-71
2022/11/30 02:16:24;;;;;;;;;;;18.50;61.60;;;;;;5060336;28;836;-71
2022/11/30 02:19:04;;;;;;;;;;;18.50;61.70;;;;;;5061408;28;1956;-70
2022/11/30 02:21:40;;;;;;;;;;;18.50;61.70;;;;;;5061562;28;987;-71
2022/11/30 02:24:06;;;;;;;;;;;18.50;61.70;;;;;;5040991;28;950;-71
2022/11/30 02:26:34;;;;;;;;;;;18.50;61.70;;;;;;5058704;28;1280;-71
2022/11/30 02:29:02;;;;;;;;;;;18.50;61.70;;;;;;5060651;28;1282;-71
2022/11/30 02:31:30;;;;;;;;;;;18.50;61.70;;;;;;5057887;28;1592;-71
2022/11/30 02:33:55;;;;;;;;;;;18.50;61.70;;;;;;5039228;28;1019;-71
2022/11/30 02:36:21;;;;;;;;;;;18.50;61.70;;;;;;5061322;28;840;-71
2022/11/30 02:38:46;;;;;;;;;;;18.50;61.70;;;;;;5059482;28;1874;-71
2022/11/30 02:41:12;;;;;;;;;;;18.50;61.80;;;;;;5040255;28;930;-71
2022/11/30 02:43:38;;;;;;;;;;;18.50;61.80;;;;;;5058698;28;808;-71
2022/11/30 02:46:06;;;;;;;;;;;18.50;61.70;;;;;;5039649;28;830;-71
2022/11/30 02:48:52;;;;;;;;;;;18.50;61.80;;;;;;5061336;28;1264;-71
2022/11/30 02:51:18;;;;;;;;;;;18.50;61.80;;;;;;5056165;28;1233;-71
2022/11/30 02:53:44;;;;;;;;;;;18.50;61.80;;;;;;5038189;28;896;-70
2022/11/30 02:56:10;;;;;;;;;;;18.50;61.80;;;;;;5058005;28;963;-70
2022/11/30 02:58:35;;;;;;;;;;;18.50;61.80;;;;;;5059408;28;1965;-71
2022/11/30 03:01:01;;;;;;;;;;;18.50;61.80;;;;;;5039985;28;942;-71
2022/11/30 03:03:26;;;;;;;;;;;18.50;61.80;;;;;;5059433;28;986;-71
2022/11/30 03:05:52;;;;;;;;;;;18.50;61.80;;;;;;5055504;28;823;-71
2022/11/30 03:08:17;;;;;;;;;;;18.50;61.80;;;;;;5057307;28;1363;-71
2022/11/30 03:10:42;;;;;;;;;;;18.50;61.90;;;;;;5060914;28;824;-71
2022/11/30 03:13:08;;;;;;;;;;;18.50;61.80;;;;;;5058396;28;1336;-70
2022/11/30 03:15:34;;;;;;;;;;;18.50;61.90;;;;;;5058349;28;1229;-71
2022/11/30 03:18:02;;;;;;;;;;;18.50;61.90;;;;;;5049698;28;1918;-71
2022/11/30 03:20:28;;;;;;;;;;;18.50;61.90;;;;;;5040231;28;1571;-70
2022/11/30 03:22:53;;;;;;;;;;;18.50;61.90;;;;;;5059415;28;821;-71
2022/11/30 03:25:20;;;;;;;;;;;18.40;61.80;;;;;;5058855;28;1100;-71
2022/11/30 03:27:45;;;;;;;;;;;18.50;61.90;;;;;;5057753;28;1288;-71
2022/11/30 03:30:11;;;;;;;;;;;18.40;61.90;;;;;;5057688;28;891;-71
2022/11/30 03:32:36;;;;;;;;;;;18.40;61.80;;;;;;5059420;28;868;-71
2022/11/30 03:35:02;;;;;;;;;;;18.50;62.00;;;;;;5056916;28;1093;-71
2022/11/30 03:37:27;;;;;;;;;;;18.50;62.00;;;;;;5057560;28;1930;-71
2022/11/30 03:39:53;;;;;;;;;;;18.50;62.00;;;;;;5058159;28;1357;-71
2022/11/30 03:42:18;;;;;;;;;;;18.50;62.00;;;;;;5060775;28;925;-71
2022/11/30 03:44:44;;;;;;;;;;;18.50;62.00;;;;;;5054714;28;1072;-71
2022/11/30 03:47:09;;;;;;;;;;;18.50;62.00;;;;;;5055935;28;853;-71
2022/11/30 03:49:35;;;;;;;;;;;18.50;62.00;;;;;;5057787;28;1378;-71
2022/11/30 03:52:00;;;;;;;;;;;18.50;62.00;;;;;;5059105;28;1093;-71
2022/11/30 03:54:25;;;;;;;;;;;18.50;62.00;;;;;;5060886;28;844;-71
2022/11/30 03:56:51;;;;;;;;;;;18.40;62.00;;;;;;5061485;28;866;-71
2022/11/30 03:59:16;;;;;;;;;;;18.40;62.00;;;;;;5060804;28;1910;-71
2022/11/30 04:01:42;;;;;;;;;;;18.40;62.00;;;;;;5063838;28;879;-71
2022/11/30 04:04:07;;;;;;;;;;;18.40;62.00;;;;;;5061171;28;1049;-71
2022/11/30 04:06:33;;;;;;;;;;;18.40;62.00;;;;;;5063836;28;824;-71
2022/11/30 04:08:58;;;;;;;;;;;18.40;62.00;;;;;;5060421;28;1306;-71
2022/11/30 04:11:24;;;;;;;;;;;18.40;62.10;;;;;;5063448;28;1022;-70
2022/11/30 04:13:49;;;;;;;;;;;18.50;62.10;;;;;;5064105;28;1133;-70
2022/11/30 04:16:15;;;;;;;;;;;18.40;62.00;;;;;;5063923;28;923;-71
2022/11/30 04:18:40;;;;;;;;;;;18.40;62.10;;;;;;5062334;28;1909;-71
2022/11/30 04:21:06;;;;;;;;;;;18.40;62.10;;;;;;5061638;28;962;-71
2022/11/30 04:23:32;;;;;;;;;;;18.40;62.10;;;;;;5063100;28;798;-71
2022/11/30 04:25:58;;;;;;;;;;;18.40;62.10;;;;;;5043852;28;957;-71
2022/11/30 04:28:23;;;;;;;;;;;18.40;62.10;;;;;;5042249;28;1213;-71
2022/11/30 04:30:49;;;;;;;;;;;18.40;62.10;;;;;;5048507;28;1081;-71
2022/11/30 04:33:14;;;;;;;;;;;18.40;62.10;;;;;;5065040;28;840;-71
2022/11/30 04:35:40;;;;;;;;;;;18.40;62.10;;;;;;5052922;28;954;-71
2022/11/30 04:38:06;;;;;;;;;;;18.40;62.20;;;;;;5062820;28;1963;-70
2022/11/30 04:40:31;;;;;;;;;;;18.40;62.10;;;;;;5060538;28;934;-71
2022/11/30 04:42:57;;;;;;;;;;;18.40;62.20;;;;;;5060147;28;1790;-70
2022/11/30 04:45:22;;;;;;;;;;;18.40;62.20;;;;;;5060245;28;1042;-71
2022/11/30 04:47:48;;;;;;;;;;;18.40;62.10;;;;;;5061780;28;1260;-70
2022/11/30 04:50:13;;;;;;;;;;;18.40;62.20;;;;;;5034701;28;1007;-71
2022/11/30 04:52:38;;;;;;;;;;;18.40;62.20;;;;;;5059108;28;842;-71
2022/11/30 04:55:04;;;;;;;;;;;18.40;62.20;;;;;;5060580;28;928;-71
2022/11/30 04:57:30;;;;;;;;;;;18.40;62.60;;;;;;5058654;28;1918;-70
2022/11/30 04:59:56;;;;;;;;;;;18.40;62.20;;;;;;5045064;28;1218;-71
2022/11/30 05:02:21;;;;;;;;;;;18.40;62.20;;;;;;5061515;28;1195;-71
2022/11/30 05:04:46;;;;;;;;;;;18.40;62.20;;;;;;5062077;28;903;-70
2022/11/30 05:07:12;;;;;;;;;;;18.40;62.20;;;;;;5062264;28;887;-70
2022/11/30 05:09:37;;;;;;;;;;;18.40;62.20;;;;;;5061988;28;1335;-71
2022/11/30 05:12:03;;;;;;;;;;;18.40;62.20;;;;;;5058131;28;809;-70
2022/11/30 05:14:28;;;;;;;;;;;18.40;62.20;;;;;;5061293;28;1434;-70
2022/11/30 05:16:54;;;;;;;;;;;18.50;62.20;;;;;;5057939;28;812;-70
2022/11/30 05:19:19;;;;;;;;;;;18.40;62.10;;;;;;5059509;28;1970;-70
2022/11/30 05:21:45;;;;;;;;;;;18.50;62.10;;;;;;5060129;28;1049;-70
2022/11/30 05:24:10;;;;;;;;;;;18.50;62.00;;;;;;5061554;28;885;-71
2022/11/30 05:26:36;;;;;;;;;;;18.50;62.00;;;;;;5061940;28;816;-70
2022/11/30 05:29:02;;;;;;;;;;;18.50;61.80;;;;;;5040900;28;1339;-70
2022/11/30 05:31:27;;;;;;;;;;;18.60;61.80;;;;;;5042539;28;907;-70
2022/11/30 05:33:53;;;;;;;;;;;18.60;61.70;;;;;;5059416;28;1049;-70
2022/11/30 05:36:18;;;;;;;;;;;18.60;61.60;;;;;;5063402;28;866;-70
2022/11/30 05:38:44;;;;;;;;;;;18.60;61.50;;;;;;5044110;28;1965;-70
2022/11/30 05:41:10;;;;;;;;;;;18.60;61.50;;;;;;5043507;28;872;-70
2022/11/30 05:43:35;;;;;;;;;;;18.70;61.50;;;;;;5061688;28;906;-70
2022/11/30 05:46:01;;;;;;;;;;;18.70;61.40;;;;;;5043965;28;816;-70
2022/11/30 05:48:26;;;;;;;;;;;18.70;61.30;;;;;;5059468;28;1379;-70
2022/11/30 05:50:52;;;;;;;;;;;18.70;61.30;;;;;;5042914;28;867;-70
2022/11/30 05:53:17;;;;;;;;;;;18.70;61.20;;;;;;5058071;28;1351;-70
2022/11/30 05:55:43;;;;;;;;;;;18.70;61.20;;;;;;5054233;28;978;-70
2022/11/30 05:58:09;;;;;;;;;;;18.70;61.10;;;;;;5060516;28;1953;-70
2022/11/30 06:00:34;;;;;;;;;;;18.80;61.20;;;;;;5059603;28;855;-70
2022/11/30 06:02:59;;;;;;;;;;;18.80;61.10;;;;;;5061100;28;828;-70
2022/11/30 06:05:25;;;;;;;;;;;18.80;61.10;;;;;;5059728;28;839;-70
2022/11/30 06:07:51;;;;;;;;;;;18.80;61.00;;;;;;5061260;28;1265;-70
2022/11/30 06:10:16;;;;;;;;;;;18.80;61.00;;;;;;5055365;28;941;-70
2022/11/30 06:12:41;;;;;;;;;;;18.90;60.90;;;;;;5059924;28;1317;-70
2022/11/30 06:15:07;;;;;;;;;;;19.00;60.90;;;;;;5035554;28;1678;-67
2022/11/30 06:17:33;;;;;;;;;;;19.10;60.90;;;;;;5055448;28;2012;-69
2022/11/30 06:19:58;;;;;;;;;;;19.20;61.50;;;;;;5059100;28;1361;-69
2022/11/30 06:22:24;;;;;;;;;;;19.30;60.50;;;;;;5070786;28;824;-69
2022/11/30 06:24:49;;;;;;;;;;;19.40;60.20;;;;;;5060203;28;911;-70
2022/11/30 06:27:15;;;;;;;;;;;19.50;60.00;;;;;;5060480;28;825;-67
2022/11/30 06:29:40;;;;;;;;;;;19.70;59.80;;;;;;5057677;28;1345;-67
2022/11/30 06:32:06;;;;;;;;;;;19.70;59.60;;;;;;5064317;28;892;-69
2022/11/30 06:34:31;;;;;;;;;;;19.80;59.30;;;;;;5060271;28;898;-67
2022/11/30 06:36:57;;;;;;;;;;;19.90;59.10;;;;;;5060193;28;1061;-67
2022/11/30 06:39:22;;;;;;;;;;;20.00;58.90;;;;;;5044735;28;1993;-68
2022/11/30 06:41:47;;;;;;;;;;;20.10;58.80;;;;;;5057511;28;970;-67
2022/11/30 06:44:13;;;;;;;;;;;20.10;58.90;;;;;;5065713;28;1007;-67
2022/11/30 06:46:38;;;;;;;;;;;20.20;58.40;;;;;;5059139;28;904;-68
2022/11/30 06:49:05;;;;;;;;;;;20.20;58.30;;;;;;5055645;28;1338;-68
2022/11/30 06:51:30;;;;;;;;;;;20.30;58.20;;;;;;5055921;28;832;-68
2022/11/30 06:53:55;;;;;;;;;;;20.30;58.10;;;;;;5058032;28;879;-69
2022/11/30 06:56:21;;;;;;;;;;;20.40;58.00;;;;;;5059388;28;1074;-70
2022/11/30 06:58:46;;;;;;;;;;;20.40;57.90;;;;;;5061527;28;1890;-69
2022/11/30 07:01:12;;;;;;;;;;;20.40;57.90;;;;;;5055898;28;855;-69
2022/11/30 07:03:38;;;;;;;;;;;20.40;57.80;;;;;;5051246;28;1081;-69
2022/11/30 07:06:05;;;;;;;;;;;20.50;57.80;;;;;;5059229;28;873;-70
2022/11/30 07:08:30;;;;;;;;;;;20.50;57.80;;;;;;5060833;28;1288;-70
2022/11/30 07:10:57;;;;;;;;;;;20.50;57.80;;;;;;5062063;28;887;-70
2022/11/30 07:13:23;;;;;;;;;;;20.50;57.90;;;;;;5057559;28;1044;-70
2022/11/30 07:15:48;;;;;;;;;;;20.40;57.90;;;;;;5055457;28;1710;-70
2022/11/30 07:18:14;;;;;;;;;;;20.40;57.90;;;;;;5056012;28;1917;-69
2022/11/30 07:20:39;;;;;;;;;;;20.50;58.00;;;;;;5059425;28;859;-69
2022/11/30 07:28:35;;;;;;;;;;;20.40;58.00;;;;;;5049682;28;1264;-69
2022/11/30 07:31:00;;;;;;;;;;;20.40;58.00;;;;;;5059813;28;924;-69
2022/11/30 07:33:26;;;;;;;;;;;20.40;58.00;;;;;;5057260;28;890;-69
2022/11/30 07:35:52;;;;;;;;;;;20.40;58.10;;;;;;5056007;28;1070;-70
2022/11/30 07:38:18;;;;;;;;;;;20.40;58.10;;;;;;5061086;28;1911;-70
2022/11/30 07:40:43;;;;;;;;;;;20.40;58.20;;;;;;5058733;28;852;-69
2022/11/30 07:43:09;;;;;;;;;;;20.30;58.20;;;;;;5056311;28;982;-69
2022/11/30 07:45:34;;;;;;;;;;;20.30;58.20;;;;;;5036187;28;950;-69
2022/11/30 07:47:59;;;;;;;;;;;20.30;58.20;;;;;;5058219;28;1277;-69
2022/11/30 07:50:25;;;;;;;;;;;20.30;58.30;;;;;;5049005;28;886;-69
2022/11/30 07:52:50;;;;;;;;;;;20.30;58.30;;;;;;5056362;28;907;-69
2022/11/30 07:55:16;;;;;;;;;;;20.30;58.40;;;;;;5058714;28;871;-69
2022/11/30 07:57:42;;;;;;;;;;;20.30;58.40;;;;;;5058263;28;1999;-69
2022/11/30 08:00:08;;;;;;;;;;;20.20;58.40;;;;;;5060238;28;916;-69
2022/11/30 08:02:33;;;;;;;;;;;20.20;58.50;;;;;;5059407;28;968;-69
2022/11/30 08:04:59;;;;;;;;;;;20.20;58.50;;;;;;5054721;28;1400;-69
2022/11/30 08:07:24;;;;;;;;;;;20.20;58.50;;;;;;5054261;28;953;-69
2022/11/30 08:09:50;;;;;;;;;;;20.20;58.60;;;;;;5057742;28;1262;-69
2022/11/30 08:12:15;;;;;;;;;;;20.10;58.60;;;;;;5058150;28;1361;-69
2022/11/30 08:14:41;;;;;;;;;;;20.10;59.00;;;;;;5059256;28;1299;-69
2022/11/30 08:17:07;;;;;;;;;;;20.10;59.30;;;;;;5057342;28;1243;-69
2022/11/30 08:19:33;;;;;;;;;;;20.10;60.10;;;;;;5060654;28;1898;-69
2022/11/30 08:21:58;;;;;;;;;;;20.10;59.60;;;;;;5059475;28;1273;-69
2022/11/30 08:24:24;;;;;;;;;;;20.20;60.10;;;;;;5058516;28;1355;-69
2022/11/30 08:26:50;;;;;;;;;;;20.10;60.00;;;;;;5059500;28;1495;-69
2022/11/30 08:29:15;;;;;;;;;;;20.20;60.20;;;;;;5058903;28;1423;-69
2022/11/30 08:31:41;;;;;;;;;;;20.20;60.00;;;;;;5057508;28;796;-69
2022/11/30 08:34:07;;;;;;;;;;;20.20;60.20;;;;;;5058753;28;919;-69
2022/11/30 08:36:32;;;;;;;;;;;20.20;60.40;;;;;;5059053;28;1257;-69
2022/11/30 08:38:58;;;;;;;;;;;20.20;60.20;;;;;;5059726;28;1898;-69
2022/11/30 08:41:23;;;;;;;;;;;20.20;60.30;;;;;;5039564;28;839;-69
2022/11/30 08:43:49;;;;;;;;;;;20.20;60.50;;;;;;5044104;28;1150;-69
2022/11/30 08:46:15;;;;;;;;;;;20.20;60.50;;;;;;5059433;28;863;-69
2022/11/30 08:48:40;;;;;;;;;;;20.20;60.70;;;;;;5060506;28;1297;-69
2022/11/30 08:51:06;;;;;;;;;;;20.20;60.70;;;;;;5043433;28;866;-69
2022/11/30 08:53:32;;;;;;;;;;;20.20;60.70;;;;;;5059791;28;871;-69
2022/11/30 08:55:59;;;;;;;;;;;20.20;60.70;;;;;;5061630;28;885;-69
2022/11/30 08:58:25;;;;;;;;;;;20.20;60.80;;;;;;5060613;28;1975;-68
2022/11/30 09:00:50;;;;;;;;;;;20.20;60.80;;;;;;5044652;28;880;-69
2022/11/30 09:03:16;;;;;;;;;;;20.20;60.90;;;;;;5059106;28;824;-69
2022/11/30 09:05:41;;;;;;;;;;;20.20;60.80;;;;;;5059492;28;887;-69
2022/11/30 09:08:06;;;;;;;;;;;20.10;60.80;;;;;;5061454;28;1274;-69
2022/11/30 09:10:32;;;;;;;;;;;20.20;61.00;;;;;;5041486;28;865;-69
2022/11/30 09:12:57;;;;;;;;;;;20.20;61.10;;;;;;5064504;28;1371;-69
2022/11/30 09:15:23;;;;;;;;;;;20.10;61.00;;;;;;5059952;28;1380;-70
2022/11/30 09:17:48;;;;;;;;;;;20.10;60.90;;;;;;5056803;28;1993;-69
2022/11/30 09:20:14;;;;;;;;;;;20.20;60.90;;;;;;5052139;28;1739;-68
2022/11/30 09:22:40;;;;;;;;;;;20.20;61.00;;;;;;5042502;28;2107;-68
2022/11/30 09:25:06;;;;;;;;;;;20.20;60.90;;;;;;5061193;28;956;-69
2022/11/30 09:27:32;;;;;;;;;;;20.20;61.20;;;;;;5057369;28;876;-69
2022/11/30 09:29:57;;;;;;;;;;;20.10;60.90;;;;;;5065600;28;1179;-69
2022/11/30 09:32:22;;;;;;;;;;;20.20;61.00;;;;;;5056278;28;868;-70
2022/11/30 09:34:48;;;;;;;;;;;20.20;61.00;;;;;;5060691;28;861;-69
2022/11/30 09:37:13;;;;;;;;;;;20.10;61.50;;;;;;5039079;28;856;-70
2022/11/30 09:39:39;;;;;;;;;;;20.10;61.50;;;;;;5059685;28;1957;-70
2022/11/30 09:42:07;;;;;;;;;;;20.10;61.60;;;;;;5062452;28;934;-70
2022/11/30 09:44:39;;;;;;;;;;;20.10;61.80;;;;;;5059919;28;804;-70
2022/11/30 09:47:04;;;;;;;;;;;20.20;61.80;;;;;;5059404;28;987;-70
2022/11/30 09:49:30;;;;;;;;;;;20.10;61.70;;;;;;5058919;28;1260;-70
2022/11/30 09:51:58;;;;;;;;;;;20.10;61.60;;;;;;5051088;28;986;-69
2022/11/30 09:54:34;;;;;;;;;;;20.10;61.60;;;;;;5039435;28;907;-70
2022/11/30 09:57:23;;;;;;;;;;;20.10;61.80;;;;;;5057863;28;872;-70
2022/11/30 10:00:15;;;;;;;;;;;20.10;61.80;;;;;;5025864;28;1280;-70
2022/11/30 10:02:40;;;;;;;;;;;20.10;62.00;;;;;;5052514;28;1149;-70
2022/11/30 10:05:12;;;;;;;;;;;20.10;62.00;;;;;;5040071;28;838;-69
2022/11/30 10:07:57;;;;;;;;;;;20.10;62.10;;;;;;5057719;28;829;-70
2022/11/30 10:10:22;;;;;;;;;;;20.10;62.00;;;;;;5060561;28;1211;-70
2022/11/30 10:12:49;;;;;;;;;;;20.10;62.10;;;;;;5057136;28;1543;-70
2022/11/30 10:15:15;;;;;;;;;;;20.00;62.10;;;;;;5058027;28;1348;-70
2022/11/30 10:17:49;;;;;;;;;;;20.10;62.10;;;;;;5061704;28;1968;-70
2022/11/30 10:20:33;;;;;;;;;;;20.10;62.20;;;;;;5059641;28;826;-70
2022/11/30 10:23:17;;;;;;;;;;;20.00;62.40;;;;;;5057608;28;880;-70
2022/11/30 10:25:56;;;;;;;;;;;20.00;62.40;;;;;;5058281;28;890;-69
2022/11/30 10:28:24;;;;;;;;;;;20.10;62.40;;;;;;5058431;28;1248;-70
2022/11/30 10:30:49;;;;;;;;;;;20.00;62.30;;;;;;5044540;28;1227;-70
2022/11/30 10:33:17;;;;;;;;;;;20.10;62.40;;;;;;5061766;28;1109;-70
2022/11/30 10:35:47;;;;;;;;;;;20.10;62.30;;;;;;5059803;28;838;-70
2022/11/30 10:38:16;;;;;;;;;;;20.00;62.20;;;;;;5042171;28;1993;-69
2022/11/30 10:40:45;;;;;;;;;;;20.00;62.30;;;;;;5050905;28;888;-70
2022/11/30 10:43:10;;;;;;;;;;;20.00;62.30;;;;;;5058817;28;1284;-69
2022/11/30 10:45:36;;;;;;;;;;;20.00;62.40;;;;;;5057624;28;974;-70
2022/11/30 10:48:06;;;;;;;;;;;20.00;62.30;;;;;;5039323;28;1314;-70
2022/11/30 10:50:31;;;;;;;;;;;20.00;62.20;;;;;;5036450;28;1010;-69
2022/11/30 10:52:57;;;;;;;;;;;20.00;62.40;;;;;;5040765;28;1258;-69
2022/11/30 10:55:24;;;;;;;;;;;20.00;62.20;;;;;;5059136;28;998;-69
2022/11/30 10:57:50;;;;;;;;;;;20.00;62.30;;;;;;5034400;28;2138;-70
2022/11/30 11:00:17;;;;;;;;;;;20.00;62.30;;;;;;5035137;28;2010;-69
2022/11/30 11:02:44;;;;;;;;;;;20.00;62.30;;;;;;5037567;28;2050;-69
2022/11/30 11:05:20;;;;;;;;;;;20.00;62.30;;;;;;5037515;28;903;-68
2022/11/30 11:08:04;;;;;;;;;;;20.00;62.40;;;;;;5040890;28;1458;-69
2022/11/30 11:10:34;;;;;;;;;;;20.10;62.70;;;;;;5054572;28;1227;-69
2022/11/30 11:12:59;;;;;;;;;;;20.00;62.50;;;;;;5048909;28;1326;-69
2022/11/30 11:15:28;;;;;;;;;;;20.00;62.50;;;;;;5058071;28;1315;-68
2022/11/30 11:18:11;;;;;;;;;;;20.10;62.50;;;;;;5041544;28;1906;-69
2022/11/30 11:20:38;;;;;;;;;;;20.10;62.60;;;;;;5049077;28;1089;-69
2022/11/30 11:23:03;;;;;;;;;;;20.10;62.50;;;;;;5041706;28;910;-68
2022/11/30 11:25:32;;;;;;;;;;;20.10;62.50;;;;;;5056577;28;812;-70
2022/11/30 11:28:04;;;;;;;;;;;20.10;62.50;;;;;;5056133;28;1293;-69
2022/11/30 11:30:30;;;;;;;;;;;20.10;62.50;;;;;;5054333;28;914;-69
2022/11/30 11:33:10;;;;;;;;;;;20.10;62.50;;;;;;5057164;28;919;-69
2022/11/30 11:35:40;;;;;;;;;;;20.10;62.40;;;;;;5056681;28;796;-69
2022/11/30 11:38:21;;;;;;;;;;;20.10;62.50;;;;;;5057655;28;1898;-69
2022/11/30 11:40:50;;;;;;;;;;;20.10;62.70;;;;;;5055262;28;828;-69
2022/11/30 11:43:16;;;;;;;;;;;20.10;62.80;;;;;;5047988;28;1030;-69
2022/11/30 11:45:41;;;;;;;;;;;20.10;62.70;;;;;;5058714;28;887;-70
2022/11/30 11:48:22;;;;;;;;;;;20.10;62.80;;;;;;5038698;28;1497;-69
2022/11/30 11:50:55;;;;;;;;;;;20.10;63.00;;;;;;5039358;28;996;-70
2022/11/30 11:53:21;;;;;;;;;;;20.10;63.00;;;;;;5061250;28;832;-70
2022/11/30 11:55:55;;;;;;;;;;;20.10;63.00;;;;;;5046998;28;993;-69
2022/11/30 11:58:40;;;;;;;;;;;20.10;63.00;;;;;;5039450;28;1915;-69
2022/11/30 12:01:07;;;;;;;;;;;20.10;63.00;;;;;;5012197;28;1264;-71
2022/11/30 12:03:35;;;;;;;;;;;20.10;63.00;;;;;;5047980;28;891;-68
2022/11/30 12:06:02;;;;;;;;;;;20.10;62.90;;;;;;5055737;28;1703;-70
2022/11/30 12:08:34;;;;;;;;;;;20.10;63.00;;;;;;5037845;28;1256;-70
2022/11/30 12:11:05;;;;;;;;;;;20.10;63.10;;;;;;5058611;28;864;-70
2022/11/30 12:13:32;;;;;;;;;;;20.10;63.00;;;;;;5044640;28;1948;-70
2022/11/30 12:15:57;;;;;;;;;;;20.10;62.90;;;;;;5047745;28;1201;-69
2022/11/30 12:18:23;;;;;;;;;;;20.10;63.10;;;;;;5060129;28;1991;-70
2022/11/30 12:20:57;;;;;;;;;;;20.10;63.10;;;;;;5052659;28;991;-68
2022/11/30 12:23:41;;;;;;;;;;;20.10;63.10;;;;;;5038470;28;964;-70
2022/11/30 12:26:10;;;;;;;;;;;20.10;63.20;;;;;;5040828;28;796;-70
2022/11/30 12:28:39;;;;;;;;;;;20.10;62.90;;;;;;5052020;28;1351;-69
2022/11/30 12:31:10;;;;;;;;;;;20.10;63.00;;;;;;5042532;28;825;-69
2022/11/30 12:33:51;;;;;;;;;;;20.10;63.00;;;;;;5060213;28;854;-69
2022/11/30 12:36:22;;;;;;;;;;;20.10;63.20;;;;;;5060164;28;1074;-69
2022/11/30 12:38:49;;;;;;;;;;;20.10;63.20;;;;;;5061179;28;1961;-69
2022/11/30 12:41:29;;;;;;;;;;;20.10;63.30;;;;;;5057501;28;955;-69
2022/11/30 12:44:10;;;;;;;;;;;20.10;63.20;;;;;;5061716;28;843;-70
2022/11/30 12:46:48;;;;;;;;;;;20.10;63.40;;;;;;5056128;28;863;-70
2022/11/30 12:49:20;;;;;;;;;;;20.10;63.40;;;;;;5055836;28;1208;-69
2022/11/30 12:51:48;;;;;;;;;;;20.10;63.30;;;;;;5038070;28;1014;-69
2022/11/30 12:54:23;;;;;;;;;;;20.10;63.50;;;;;;5038074;28;994;-69
2022/11/30 12:57:12;;;;;;;;;;;20.10;63.70;;;;;;5037835;28;1022;-69
2022/11/30 12:59:43;;;;;;;;;;;20.10;63.60;;;;;;5047381;28;1972;-69
2022/11/30 13:02:24;;;;;;;;;;;20.00;63.50;;;;;;5065154;28;859;-69
2022/11/30 13:04:54;;;;;;;;;;;20.10;63.80;;;;;;5049048;28;1571;-69
2022/11/30 13:07:19;;;;;;;;;;;20.00;60.30;;;;;;5058730;28;813;-68
2022/11/30 13:09:45;;;;;;;;;;;20.00;57.80;;;;;;5063350;28;1242;-69
2022/11/30 13:12:11;;;;;;;;;;;19.90;56.70;;;;;;5060011;28;1161;-69
2022/11/30 13:14:36;;;;;;;;;;;19.80;55.70;;;;;;5041895;28;1316;-68
2022/11/30 13:17:06;;;;;;;;;;;19.80;54.80;;;;;;5043403;28;897;-68
2022/11/30 13:19:52;;;;;;;;;;;19.70;53.30;;;;;;5046205;28;1906;-68
2022/11/30 13:22:38;;;;;;;;;;;19.70;53.20;;;;;;5040496;28;902;-68
2022/11/30 13:25:10;;;;;;;;;;;19.60;54.90;;;;;;5019416;28;1430;-68
2022/11/30 13:27:48;;;;;;;;;;;19.60;53.00;;;;;;5048862;28;1117;-69
2022/11/30 13:30:13;;;;;;;;;;;19.60;53.30;;;;;;5037158;28;1034;-69
2022/11/30 13:32:39;;;;;;;;;;;19.50;53.80;;;;;;5065188;28;851;-69
2022/11/30 13:35:23;;;;;;;;;;;19.50;54.00;;;;;;5062358;28;886;-69
2022/11/30 13:37:59;;;;;;;;;;;19.50;54.00;;;;;;5072707;28;1952;-69
2022/11/30 13:40:25;;;;;;;;;;;19.40;54.60;;;;;;5062750;28;1081;-69
2022/11/30 13:42:50;;;;;;;;;;;19.40;55.10;;;;;;5060661;28;800;-68
2022/11/30 13:45:16;;;;;;;;;;;19.50;56.20;;;;;;5039611;28;1582;-68
2022/11/30 13:47:45;;;;;;;;;;;19.40;55.90;;;;;;5051009;28;1272;-69
2022/11/30 13:50:31;;;;;;;;;;;19.40;56.20;;;;;;5059661;28;856;-68
2022/11/30 13:52:57;;;;;;;;;;;19.40;56.40;;;;;;5057756;28;1010;-69
2022/11/30 13:55:34;;;;;;;;;;;19.40;56.60;;;;;;5059989;28;1225;-68
2022/11/30 13:58:00;;;;;;;;;;;19.40;56.80;;;;;;5058806;28;1910;-69
2022/11/30 14:00:28;;;;;;;;;;;19.40;57.10;;;;;;5058755;28;954;-68
2022/11/30 14:02:56;;;;;;;;;;;19.40;57.20;;;;;;5059676;28;836;-69
2022/11/30 14:05:31;;;;;;;;;;;19.40;57.40;;;;;;5058169;28;863;-69
2022/11/30 14:07:59;;;;;;;;;;;19.30;57.40;;;;;;5057945;28;1231;-69
2022/11/30 14:10:28;;;;;;;;;;;19.30;57.60;;;;;;5058647;28;875;-70
2022/11/30 14:12:56;;;;;;;;;;;19.40;57.70;;;;;;5052103;28;1311;-70
2022/11/30 14:15:48;;;;;;;;;;;19.40;57.90;;;;;;5026971;28;1373;-69
2022/11/30 14:18:13;;;;;;;;;;;19.40;58.00;;;;;;5058011;28;1902;-70
2022/11/30 14:20:39;;;;;;;;;;;19.30;58.10;;;;;;5059071;28;883;-70
2022/11/30 14:23:12;;;;;;;;;;;19.40;58.20;;;;;;5057465;28;845;-70
2022/11/30 14:25:38;;;;;;;;;;;19.30;58.30;;;;;;5041538;28;895;-71
2022/11/30 14:28:04;;;;;;;;;;;19.30;58.30;;;;;;5041858;28;1363;-70
2022/11/30 14:30:30;;;;;;;;;;;19.30;58.40;;;;;;5051125;28;860;-69
2022/11/30 14:33:00;;;;;;;;;;;19.30;59.10;;;;;;5041332;28;998;-70
2022/11/30 14:35:26;;;;;;;;;;;19.30;58.50;;;;;;5033425;28;1591;-70
2022/11/30 14:37:53;;;;;;;;;;;19.30;58.60;;;;;;5036351;28;1898;-69
2022/11/30 14:40:19;;;;;;;;;;;19.30;58.60;;;;;;5042387;28;868;-70
2022/11/30 14:42:45;;;;;;;;;;;19.30;58.70;;;;;;5035237;28;2077;-70
2022/11/30 14:45:21;;;;;;;;;;;19.30;58.70;;;;;;5039980;28;994;-70